Matthias Stieglbauer im Turnier von 01.02.2019 bis 01.03.2019

Matthias Stieglbauers Ergebnis

Rang 277.
Turnierpunkte 972
Gespielt : Gewonnen 100 : 59
Schneider 6
Bilanz 600:488

Matthias Stieglbauers Bummerln

Zeit Gegner Ergebnis Ende
20:41:35 am 20.02.2019 JoWo 7:0 normal
20:27:55 am 20.02.2019 obomo 8:5 normal
20:22:03 am 20.02.2019 G8441 8:4 normal
20:19:25 am 20.02.2019 Zorro 54 8:2 normal
20:14:57 am 20.02.2019 james 2:8 normal
18:22:08 am 20.02.2019 kurt 4:7 normal
21:00:25 am 19.02.2019 Andy 3:7 normal
20:56:19 am 19.02.2019 Guardian_Moleman 9:1 normal
20:48:54 am 19.02.2019 *SM-G950F 7:6 autocontnormal
20:44:34 am 19.02.2019 fs 8:2 normal
20:39:02 am 19.02.2019 Nadja Buhri 8:5 normal
19:40:16 am 19.02.2019 nessa34 2:7 normal
19:32:51 am 19.02.2019 Martin 4:7 normal
18:59:47 am 19.02.2019 Gregor Vicar 8:1 normal
18:22:39 am 19.02.2019 Franzi 3:8 normal
13:06:22 am 19.02.2019 Otto Werner Wohlkönig 8:1 normal
20:13:10 am 18.02.2019 Gebi 7:5 normal
20:07:14 am 18.02.2019 Anita Juhász 2:8 normal
20:04:12 am 18.02.2019 Andi Ka. 7:0 normal
19:52:15 am 18.02.2019 andi 3:9 normal
19:47:34 am 18.02.2019 Spielerin ohne Name 5:8 normal
19:42:40 am 18.02.2019 Michael 4:8 normal
19:36:58 am 18.02.2019 Helmu 9:4 normal
19:32:29 am 18.02.2019 Heimo Breitler 9:0 normal
20:40:14 am 17.02.2019 Mario 3:8 normal
12:37:57 am 17.02.2019 Darku Darku Horvat 1:7 normal
09:33:52 am 17.02.2019 Goassi 6:7 normal
09:00:21 am 17.02.2019 BullittGroupLimited ... 5:9 normal
08:24:40 am 17.02.2019 iPhone von Victoria 6:7 normal
08:19:00 am 17.02.2019 Püpser 7:1 normal
08:11:55 am 17.02.2019 SM-J710christaF 5:9 normal
08:07:04 am 17.02.2019 Marie 8:2 normal
08:03:21 am 17.02.2019 wip 0:7 normal
07:46:32 am 17.02.2019 Hr. Werner 8:3 normal
07:43:02 am 17.02.2019 Manuel 7:5 normal
07:35:30 am 17.02.2019 Lexus 4:8 normal
07:30:48 am 17.02.2019 Eva 8:3 normal
10:03:37 am 16.02.2019 FriedlZ 4:8 normal
08:29:42 am 16.02.2019 DELETED 6:7 normal
13:11:34 am 15.02.2019 AS1 8:1 normal
12:00:29 am 15.02.2019 Christian Hölbling 1:7 normal
11:55:04 am 15.02.2019 Kalti 5:8 normal
08:03:33 am 15.02.2019 Klaus Krainer 2:8 normal
07:50:48 am 15.02.2019 ALF 8:4 normal
07:46:36 am 15.02.2019 Magdi 7:3 normal
06:56:14 am 15.02.2019 Michael Krainz 4:7 normal
20:18:04 am 14.02.2019 Friedl J. 6:7 normal
20:06:05 am 14.02.2019 teo 7:3 normal
12:09:00 am 14.02.2019 Weini10 2:7 normal
12:07:00 am 14.02.2019 Steff Schiri 0:8 normal
19:12:24 am 13.02.2019 pcn1 8:1 normal
19:08:13 am 13.02.2019 mo 7:6 normal
19:03:53 am 13.02.2019 R. Michl 8:5 normal
15:43:44 am 13.02.2019 camii 9:3 normal
13:23:51 am 13.02.2019 Hapi 7:2 normal
13:18:49 am 13.02.2019 Andrej Lejko 8:5 normal
13:06:16 am 13.02.2019 ivan Hauser 7:6 normal
12:59:36 am 13.02.2019 Erwin.M. 7:5 normal
12:56:07 am 13.02.2019 samsung SM-T550 7:3 normal
12:05:18 am 13.02.2019 *Westbrook 7:1 autocontnormal
12:00:34 am 13.02.2019 Kristjan 7:5 normal
11:57:12 am 13.02.2019 Dingdang 5:7 normal
11:52:27 am 13.02.2019 Claudia 5:8 normal
11:41:59 am 13.02.2019 mafijko 7:6 normal
11:37:02 am 13.02.2019 Leopold Lunzer 3:8 normal
07:18:30 am 13.02.2019 Angi 8:1 normal
07:12:13 am 13.02.2019 Angi 8:1 normal
20:10:48 am 12.02.2019 Milkyway 8:1 normal
20:02:47 am 12.02.2019 Black Cat 7:4 normal
19:58:01 am 12.02.2019 martinL. 7:4 normal
19:52:31 am 12.02.2019 Manu 7:5 normal
19:46:15 am 12.02.2019 Öki 8:3 normal
19:41:39 am 12.02.2019 Reinhold Stangl 2:8 normal
13:28:47 am 12.02.2019 Erich 6:7 normal
18:19:27 am 11.02.2019 fredi 3:7 normal
20:35:58 am 10.02.2019 Hannes Enzi 7:1 normal
16:52:44 am 10.02.2019 zokker74 7:6 normal
16:46:59 am 10.02.2019 Dani007 7:4 normal
16:44:01 am 10.02.2019 MST83 7:1 normal
12:04:25 am 10.02.2019 Marco 5:7 normal
11:56:42 am 10.02.2019 DARA 8:6 normal
11:52:10 am 10.02.2019 Dean Sambolec 5:7 normal
09:30:31 am 10.02.2019 martin 7:5 normal
09:12:37 am 10.02.2019 Hannes Moser 7:2 normal
09:09:59 am 10.02.2019 Speedbert 63 9:0 normal
09:02:44 am 10.02.2019 Jürgen Sikora 8:5 normal
08:58:10 am 10.02.2019 hjs 7:4 normal
08:53:00 am 10.02.2019 Doris Scheriau 6:7 normal
19:56:24 am 09.02.2019 Hallo ;-) 8:4 normal
14:20:31 am 09.02.2019 Groissi 7:5 normal
14:15:00 am 09.02.2019 Franz Irlvek 8:3 normal
14:12:25 am 09.02.2019 Christian 8:0 normal
14:04:55 am 09.02.2019 Herbert 5:7 normal
13:22:03 am 09.02.2019 Franz 2:7 normal
12:41:58 am 09.02.2019 Charlie Waffles 4:7 normal
11:35:15 am 09.02.2019 Felix 5:7 normal
11:29:17 am 09.02.2019 Daniel 7:5 normal
11:25:01 am 09.02.2019 bojann 7:2 normal
11:19:55 am 09.02.2019 FACEK 7:0 normal
11:13:08 am 09.02.2019 il ragno 5:7 normal